Tymvou, Cyprus
Current Conditions -  °F | °C
As of 4:50 AM on Friday 19 Dec 2014 (Local Time) from LCEN Reporting Station
Few Clouds Few Clouds  
Wind Chill: 54°   Ceiling: Unl
Heat Index: 54°   Visibility: 5mi
Dew Point: 50°   Wind: 6mph
Humidity: 88%   Direction: 270°W
Pressure: 30"   Gusts: NA
Location:  35.13°N, 33.52°E
Report Text: LCEN 190150Z 27005KT 8000 FEW025 12/10 Q1016 NOSIG
Loading
Personal Weather Stations






























Interactive Weather Map New forecast layout! Learn more

10-Day Weather Forecast

Advertisements
Track Severe Weather on mobile